Date,TemperatureHighF,TemperatureAvgF,TemperatureLowF,DewpointHighF,DewpointAvgF,DewpointLowF,HumidityHigh,HumidityAvg,HumidityLow,PressureMaxIn,PressureMinIn,WindSpeedMaxMPH,WindSpeedAvgMPH,GustSpeedMaxMPH,PrecipitationSumIn
2014-2-1,49.6,46.1,44.4,14.6,12.9,9.1,29,26,19,30.36,30.19,14,6,17,0.00
2014-2-2,48.7,46.6,45.1,16.2,14.8,13.3,29,27,24,30.13,30.01,13,5,17,0.00
2014-2-3,50.9,47.6,46.8,10.4,8.7,6.7,22,20,19,30.16,30.07,15,5,17,0.00
2014-2-4,53.2,49.4,46.6,14.7,11.4,7.1,27,22,18,30.24,30.13,11,4,12,0.00
2014-2-5,54.1,48.6,45.9,21.8,16.6,13.8,28,28,27,30.24,30.16,6,1,10,0.00
2014-2-6,0.0,0.0,0.0,0.0,0.0,0.0,0,0,100,30.04,30.01,6,1,8,0.00
2014-2-7,0.0,0.0,0.0,0.0,0.0,0.0,0,0,100,30.19,30.13,4,0,5,0.56
2014-2-8,0.0,0.0,0.0,0.0,0.0,0.0,0,0,100,30.19,30.07,8,2,10,0.00
2014-2-9,0.0,0.0,0.0,0.0,0.0,0.0,0,0,100,29.98,29.95,8,2,8,0.04
2014-2-10,0.0,0.0,0.0,0.0,0.0,0.0,0,0,100,30.07,29.98,8,4,8,0.00
2014-2-11,0.0,0.0,0.0,0.0,0.0,0.0,0,0,100,30.07,30.04,4,0,5,0.00
2014-2-12,0.0,0.0,0.0,0.0,0.0,0.0,0,0,100,29.92,29.92,6,4,6,0.00
2014-2-13,0.0,0.0,0.0,0.0,0.0,0.0,0,0,100,29.92,29.89,4,1,5,0.00
2014-2-14,0.0,0.0,0.0,0.0,0.0,0.0,0,0,100,29.92,29.86,0,0,0,0.00
2014-2-15,0.0,0.0,0.0,0.0,0.0,0.0,0,0,100,30.16,29.86,3,0,4,0.00
2014-2-16,0.0,0.0,0.0,0.0,0.0,0.0,0,0,100,30.22,30.16,6,2,8,0.00
2014-2-17,0.0,0.0,0.0,0.0,0.0,0.0,0,0,100,30.22,30.22,0,0,0,0.00
2014-2-18,0.0,0.0,0.0,0.0,0.0,0.0,0,0,100,30.24,30.24,0,0,0,0.00
2014-2-19,0.0,0.0,0.0,0.0,0.0,0.0,0,0,100,30.30,30.19,0,0,0,0.00
2014-2-20,0.0,0.0,0.0,0.0,0.0,0.0,0,0,100,30.19,30.04,5,0,5,0.00
2014-2-21,0.0,0.0,0.0,0.0,0.0,0.0,0,0,100,29.86,29.77,8,2,8,0.00
2014-2-22,0.0,0.0,0.0,0.0,0.0,0.0,0,0,100,29.77,29.77,0,0,0,0.00
2014-2-23,0.0,0.0,0.0,0.0,0.0,0.0,0,0,100,29.77,29.74,6,1,6,0.00
2014-2-24,0.0,0.0,0.0,0.0,0.0,0.0,0,0,100,30.01,29.68,10,2,10,0.04
2014-2-25,0.0,0.0,0.0,0.0,0.0,0.0,0,0,100,30.01,28.86,8,2,11,0.00
2014-2-26,0.0,0.0,0.0,0.0,0.0,0.0,0,0,100,30.16,30.04,6,1,8,0.00
2014-2-27,70.2,49.9,0.0,47.6,26.5,0.0,63,32,14,30.13,30.10,6,2,8,0.00
2014-2-28,60.6,58.0,55.2,56.5,49.4,28.6,95,79,31,30.07,29.83,12,1,12,0.04